createdAt,value
2019-04-04T00:01:01.636Z,10.20
2019-04-04T00:04:09.253Z,10.20
2019-04-04T00:07:16.732Z,10.10
2019-04-04T00:10:25.538Z,10.10
2019-04-04T00:13:33.656Z,10.00
2019-04-04T00:16:41.230Z,9.90
2019-04-04T00:19:48.724Z,9.80
2019-04-04T00:22:56.226Z,9.70
2019-04-04T00:26:03.733Z,9.60
2019-04-04T00:29:11.292Z,9.50
2019-04-04T00:32:21.105Z,9.50
2019-04-04T00:35:30.761Z,9.50
2019-04-04T00:38:38.544Z,9.60
2019-04-04T00:41:46.289Z,9.60
2019-04-04T00:44:55.626Z,9.70
2019-04-04T00:48:03.944Z,9.70
2019-04-04T00:51:11.511Z,9.80
2019-04-04T00:54:18.969Z,9.80
2019-04-04T00:57:26.499Z,9.80
2019-04-04T01:00:33.929Z,9.80
2019-04-04T01:03:41.503Z,9.80
2019-04-04T01:06:49.573Z,9.80
2019-04-04T01:09:57.064Z,9.70
2019-04-04T01:13:04.787Z,9.70
2019-04-04T01:16:12.362Z,9.70
2019-04-04T01:19:19.838Z,9.70
2019-04-04T01:22:27.367Z,9.70
2019-04-04T01:25:35.019Z,9.70
2019-04-04T01:28:42.500Z,9.60
2019-04-04T01:31:49.993Z,9.50
2019-04-04T01:34:57.538Z,9.50
2019-04-04T01:38:05.157Z,9.40
2019-04-04T01:41:12.595Z,9.40
2019-04-04T01:44:20.215Z,9.30
2019-04-04T01:47:27.727Z,9.30
2019-04-04T01:50:35.345Z,9.30
2019-04-04T01:53:42.801Z,9.30
2019-04-04T01:56:50.269Z,9.30
2019-04-04T01:59:57.875Z,9.30
2019-04-04T02:03:05.400Z,9.40
2019-04-04T02:06:12.993Z,9.40
2019-04-04T02:09:21.041Z,9.40
2019-04-04T02:12:30.477Z,9.40
2019-04-04T02:15:38.047Z,9.40
2019-04-04T02:18:45.672Z,9.40
2019-04-04T02:21:53.227Z,9.40
2019-04-04T02:25:02.755Z,9.40
2019-04-04T02:28:09.941Z,9.30
2019-04-04T02:31:20.611Z,9.30
2019-04-04T02:34:27.191Z,9.30
2019-04-04T02:37:34.768Z,9.30
2019-04-04T02:40:42.387Z,9.40
2019-04-04T02:43:51.060Z,9.30
2019-04-04T02:46:58.565Z,9.30
2019-04-04T02:50:07.566Z,9.30
2019-04-04T02:53:19.386Z,9.20
2019-04-04T02:56:24.238Z,9.20
2019-04-04T02:59:31.699Z,9.20
2019-04-04T03:02:39.213Z,9.20
2019-04-04T03:05:50.963Z,9.10
2019-04-04T03:08:55.986Z,9.00
2019-04-04T03:12:03.536Z,9.00
2019-04-04T03:15:11.246Z,8.80
2019-04-04T03:18:18.806Z,8.80
2019-04-04T03:21:26.334Z,8.70
2019-04-04T03:24:33.810Z,8.60
2019-04-04T03:27:41.360Z,8.60
2019-04-04T03:31:00.846Z,8.50
2019-04-04T03:33:58.246Z,8.50
2019-04-04T03:37:06.558Z,8.40
2019-04-04T03:40:15.069Z,8.40
2019-04-04T03:43:23.590Z,8.40
2019-04-04T03:46:35.878Z,8.40
2019-04-04T03:49:40.455Z,8.30
2019-04-04T03:52:48.177Z,8.30
2019-04-04T03:56:00.211Z,8.30
2019-04-04T03:59:05.942Z,8.20
2019-04-04T04:02:17.822Z,8.20
2019-04-04T04:05:27.332Z,8.20
2019-04-04T04:08:34.877Z,8.30
2019-04-04T04:11:42.508Z,8.20
2019-04-04T04:14:53.863Z,8.20
2019-04-04T04:18:00.072Z,8.20
2019-04-04T04:21:10.951Z,8.20
2019-04-04T04:24:16.732Z,8.20
2019-04-04T04:27:24.526Z,8.20
2019-04-04T04:30:33.327Z,8.10
2019-04-04T04:33:40.980Z,8.10
2019-04-04T04:36:48.686Z,8.10
2019-04-04T04:39:56.140Z,8.00
2019-04-04T04:43:04.848Z,8.00
2019-04-04T04:46:16.909Z,8.00
2019-04-04T04:49:23.327Z,8.00
2019-04-04T04:52:30.604Z,8.10
2019-04-04T04:55:38.107Z,8.10
2019-04-04T04:58:45.591Z,8.20
2019-04-04T05:01:53.047Z,8.30
2019-04-04T05:05:00.571Z,8.50
2019-04-04T05:08:09.878Z,8.60
2019-04-04T05:11:19.103Z,8.80
2019-04-04T05:14:27.804Z,8.90
2019-04-04T05:17:35.673Z,8.90
2019-04-04T05:20:43.138Z,8.90
2019-04-04T05:23:50.771Z,9.00
2019-04-04T05:26:58.371Z,9.10
2019-04-04T05:30:08.363Z,9.20
2019-04-04T05:33:15.871Z,9.20
2019-04-04T05:36:23.492Z,9.30
2019-04-04T05:39:31.061Z,9.30
2019-04-04T05:42:38.927Z,9.10
2019-04-04T05:45:46.423Z,9.10
2019-04-04T05:48:53.943Z,9.10
2019-04-04T05:52:01.481Z,8.90
2019-04-04T05:55:10.919Z,8.80
2019-04-04T05:58:21.576Z,8.90
2019-04-04T06:01:27.397Z,9.00
2019-04-04T06:04:34.882Z,9.10
2019-04-04T06:07:42.444Z,9.20
2019-04-04T06:10:50.247Z,9.30
2019-04-04T06:13:59.122Z,9.30
2019-04-04T06:17:07.857Z,9.30
2019-04-04T06:20:15.715Z,9.40
2019-04-04T06:23:25.097Z,9.60
2019-04-04T06:26:32.411Z,9.80
2019-04-04T06:29:39.887Z,9.90
2019-04-04T06:32:49.194Z,10.00
2019-04-04T06:35:58.138Z,10.20
2019-04-04T06:39:08.223Z,10.30
2019-04-04T06:42:15.822Z,10.40
2019-04-04T06:45:23.337Z,10.50
2019-04-04T06:48:33.857Z,10.60
2019-04-04T06:51:39.950Z,10.70
2019-04-04T06:54:47.400Z,11.00
2019-04-04T06:57:54.922Z,11.30
2019-04-04T07:01:02.580Z,11.40
2019-04-04T07:04:10.123Z,11.60
2019-04-04T07:07:17.720Z,11.80
2019-04-04T07:10:25.377Z,11.80
2019-04-04T07:13:42.121Z,11.90
2019-04-04T07:16:42.189Z,12.00
2019-04-04T07:19:49.755Z,12.10
2019-04-04T07:22:57.479Z,12.30
2019-04-04T07:26:05.537Z,12.50
2019-04-04T07:29:15.205Z,12.70
2019-04-04T07:32:22.707Z,13.10
2019-04-04T07:35:30.300Z,13.40
2019-04-04T07:38:38.073Z,13.80
2019-04-04T07:41:45.636Z,14.10
2019-04-04T07:44:54.710Z,14.70
2019-04-04T07:48:03.546Z,15.20
2019-04-04T07:51:12.313Z,15.80
2019-04-04T07:54:19.807Z,16.40
2019-04-04T07:57:30.007Z,17.20
2019-04-04T08:00:36.604Z,17.70
2019-04-04T08:03:44.401Z,17.30
2019-04-04T08:06:51.919Z,17.70
2019-04-04T08:09:59.575Z,17.40
2019-04-04T08:13:07.130Z,18.00
2019-04-04T08:16:15.725Z,17.80
2019-04-04T08:19:23.230Z,17.20
2019-04-04T08:22:30.668Z,16.90
2019-04-04T08:25:39.122Z,17.60
2019-04-04T08:28:46.673Z,17.70
2019-04-04T08:31:54.256Z,18.00
2019-04-04T08:35:01.838Z,17.90
2019-04-04T08:38:09.500Z,17.80
2019-04-04T08:41:17.043Z,17.80
2019-04-04T08:44:24.515Z,18.40
2019-04-04T08:47:32.039Z,18.60
2019-04-04T08:50:40.012Z,19.00
2019-04-04T08:53:47.609Z,19.00
2019-04-04T08:56:55.193Z,19.50
2019-04-04T09:00:02.832Z,18.60
2019-04-04T09:03:11.894Z,18.50
2019-04-04T09:06:19.968Z,18.20
2019-04-04T09:09:27.513Z,18.50
2019-04-04T09:12:35.000Z,19.40
2019-04-04T09:15:42.722Z,18.70
2019-04-04T09:18:50.202Z,18.70
2019-04-04T09:21:57.684Z,18.70
2019-04-04T09:25:06.225Z,19.80
2019-04-04T09:28:14.794Z,19.80
2019-04-04T09:31:22.323Z,19.90
2019-04-04T09:34:29.848Z,19.50
2019-04-04T09:37:37.404Z,19.00
2019-04-04T09:40:44.947Z,18.50
2019-04-04T09:43:52.444Z,18.40
2019-04-04T09:47:05.497Z,18.50
2019-04-04T09:50:10.296Z,18.80
2019-04-04T09:53:17.735Z,19.20
2019-04-04T09:56:25.597Z,19.00
2019-04-04T09:59:33.066Z,18.60
2019-04-04T10:02:40.551Z,18.70
2019-04-04T10:05:48.644Z,18.90
2019-04-04T10:08:57.336Z,19.00
2019-04-04T10:12:04.796Z,18.60
2019-04-04T10:15:12.997Z,18.20
2019-04-04T10:18:20.574Z,18.40
2019-04-04T10:21:28.191Z,19.10
2019-04-04T10:24:35.710Z,18.40
2019-04-04T10:27:43.236Z,18.70
2019-04-04T10:30:50.868Z,18.80
2019-04-04T10:33:58.482Z,18.40
2019-04-04T10:37:05.942Z,18.70
2019-04-04T10:40:13.722Z,19.00
2019-04-04T10:43:21.302Z,18.90
2019-04-04T10:46:28.878Z,18.70
2019-04-04T10:49:36.583Z,18.60
2019-04-04T10:52:44.235Z,19.10
2019-04-04T10:55:51.841Z,18.60
2019-04-04T10:58:59.462Z,18.80
2019-04-04T11:02:07.602Z,18.40
2019-04-04T11:05:15.357Z,18.90
2019-04-04T11:08:23.030Z,18.70
2019-04-04T11:11:30.502Z,18.40
2019-04-04T11:14:38.092Z,19.00
2019-04-04T11:17:45.802Z,19.40
2019-04-04T11:20:53.446Z,19.40
2019-04-04T11:24:01.014Z,19.40
2019-04-04T11:27:08.590Z,19.60
2019-04-04T11:30:17.266Z,19.30
2019-04-04T11:33:24.874Z,19.50
2019-04-04T11:36:32.430Z,19.60
2019-04-04T11:39:39.992Z,19.20
2019-04-04T11:42:47.636Z,19.40
2019-04-04T11:45:55.085Z,19.30
2019-04-04T11:49:02.570Z,18.80
2019-04-04T11:52:10.076Z,19.00
2019-04-04T11:55:17.592Z,18.90
2019-04-04T11:58:25.082Z,18.80
2019-04-04T12:01:33.623Z,18.70
2019-04-04T12:04:41.084Z,18.90
2019-04-04T12:07:48.514Z,19.10
2019-04-04T12:10:55.991Z,19.00
2019-04-04T12:14:05.398Z,18.90
2019-04-04T12:17:13.009Z,18.90
2019-04-04T12:20:20.614Z,18.70
2019-04-04T12:23:28.183Z,18.70
2019-04-04T12:26:35.776Z,18.50
2019-04-04T12:29:43.304Z,19.20
2019-04-04T12:32:50.780Z,19.80
2019-04-04T12:35:58.314Z,19.80
2019-04-04T12:39:08.786Z,19.30
2019-04-04T12:42:16.388Z,19.10
2019-04-04T12:45:24.271Z,18.90
2019-04-04T12:48:32.574Z,18.60
2019-04-04T12:51:42.272Z,18.30
2019-04-04T12:54:49.806Z,18.50
2019-04-04T12:57:57.328Z,18.60
2019-04-04T13:01:04.841Z,18.30
2019-04-04T13:04:12.316Z,18.30
2019-04-04T13:07:19.764Z,18.20
2019-04-04T13:10:33.387Z,18.30
2019-04-04T13:13:38.371Z,18.00
2019-04-04T13:16:46.595Z,18.10
2019-04-04T13:19:54.376Z,18.00
2019-04-04T13:23:02.697Z,18.00
2019-04-04T13:26:10.826Z,17.80
2019-04-04T13:29:18.501Z,17.80
2019-04-04T13:32:25.988Z,17.80
2019-04-04T13:35:33.436Z,17.80
2019-04-04T13:38:41.074Z,17.70
2019-04-04T13:41:48.663Z,17.80
2019-04-04T13:44:56.191Z,17.70
2019-04-04T13:48:03.704Z,17.70
2019-04-04T13:51:11.215Z,17.80
2019-04-04T13:54:18.806Z,17.80
2019-04-04T13:57:26.429Z,17.80
2019-04-04T14:00:33.987Z,17.80
2019-04-04T14:03:43.219Z,17.80
2019-04-04T14:06:50.807Z,17.90
2019-04-04T14:09:59.516Z,18.00
2019-04-04T14:13:07.010Z,18.10
2019-04-04T14:16:15.738Z,18.30
2019-04-04T14:19:23.500Z,18.40
2019-04-04T14:22:31.079Z,18.50
2019-04-04T14:25:38.549Z,18.40
2019-04-04T14:28:46.069Z,18.20
2019-04-04T14:31:53.641Z,18.20
2019-04-04T14:35:01.902Z,18.10
2019-04-04T14:38:09.561Z,18.20
2019-04-04T14:41:18.141Z,18.30
2019-04-04T14:44:28.032Z,18.40
2019-04-04T14:47:37.039Z,18.50
2019-04-04T14:50:44.890Z,18.60
2019-04-04T14:53:52.465Z,18.60
2019-04-04T14:57:00.138Z,18.70
2019-04-04T15:00:09.454Z,18.50
2019-04-04T15:03:19.244Z,18.60
2019-04-04T15:06:26.849Z,18.50
2019-04-04T15:09:34.561Z,18.40
2019-04-04T15:12:42.102Z,18.40
2019-04-04T15:16:18.545Z,18.50
2019-04-04T15:19:26.624Z,18.60
2019-04-04T15:22:34.125Z,18.60
2019-04-04T15:25:41.634Z,18.50
2019-04-04T15:28:49.596Z,18.40
2019-04-04T15:31:57.168Z,18.40
2019-04-04T15:35:04.847Z,18.30
2019-04-04T15:38:12.456Z,18.10
2019-04-04T15:41:20.443Z,18.20
2019-04-04T15:44:28.163Z,18.10
2019-04-04T15:47:35.774Z,18.20
2019-04-04T15:50:43.467Z,18.10
2019-04-04T15:53:51.361Z,18.10
2019-04-04T15:56:58.981Z,18.00
2019-04-04T16:00:08.289Z,17.90
2019-04-04T16:03:15.997Z,17.90
2019-04-04T16:06:23.639Z,17.80
2019-04-04T16:09:31.168Z,17.80
2019-04-04T16:12:38.765Z,17.70
2019-04-04T16:15:46.416Z,17.70
2019-04-04T16:18:53.960Z,17.70
2019-04-04T16:22:02.736Z,17.60
2019-04-04T16:25:10.421Z,17.50
2019-04-04T16:28:18.027Z,17.40
2019-04-04T16:31:25.701Z,17.40
2019-04-04T16:34:33.398Z,17.40
2019-04-04T16:37:41.144Z,17.30
2019-04-04T16:40:49.141Z,17.20
2019-04-04T16:43:56.807Z,17.20
2019-04-04T16:47:04.646Z,17.10
2019-04-04T16:50:14.042Z,17.00
2019-04-04T16:53:21.651Z,16.80
2019-04-04T16:56:29.404Z,16.70
2019-04-04T16:59:37.198Z,16.60
2019-04-04T17:02:45.375Z,16.50
2019-04-04T17:05:52.875Z,16.40
2019-04-04T17:09:00.559Z,16.40
2019-04-04T17:12:15.077Z,16.30
2019-04-04T17:15:19.359Z,16.20
2019-04-04T17:18:27.004Z,16.00
2019-04-04T17:21:34.983Z,15.80
2019-04-04T17:24:42.754Z,15.70
2019-04-04T17:27:50.224Z,15.60
2019-04-04T17:30:57.902Z,15.50
2019-04-04T17:34:08.934Z,15.40
2019-04-04T17:37:16.646Z,15.30
2019-04-04T17:40:24.207Z,15.10
2019-04-04T17:43:32.378Z,15.00
2019-04-04T17:46:40.103Z,14.80
2019-04-04T17:49:47.945Z,14.80
2019-04-04T17:52:55.596Z,14.70
2019-04-04T17:56:04.057Z,14.60
2019-04-04T17:59:11.748Z,14.50
2019-04-04T18:02:19.350Z,14.40
2019-04-04T18:05:27.119Z,14.40
2019-04-04T18:08:34.714Z,14.40
2019-04-04T18:11:42.381Z,14.30
2019-04-04T18:14:51.307Z,14.30
2019-04-04T18:18:00.474Z,14.30
2019-04-04T18:21:08.389Z,14.30
2019-04-04T18:24:16.109Z,14.30
2019-04-04T18:27:23.818Z,14.30
2019-04-04T18:30:31.465Z,14.30
2019-04-04T18:33:40.294Z,14.30
2019-04-04T18:36:48.521Z,14.20
2019-04-04T18:39:56.072Z,14.20
2019-04-04T18:43:03.729Z,14.10
2019-04-04T18:46:11.265Z,14.10
2019-04-04T18:49:18.942Z,14.10
2019-04-04T18:52:26.599Z,14.00
2019-04-04T18:55:34.198Z,14.00
2019-04-04T18:58:41.797Z,14.00
2019-04-04T19:01:52.092Z,14.00
2019-04-04T19:04:59.613Z,13.90
2019-04-04T19:08:07.189Z,13.90
2019-04-04T19:11:14.692Z,13.90
2019-04-04T19:14:22.292Z,13.90
2019-04-04T19:17:29.749Z,13.90
2019-04-04T19:20:37.539Z,13.80
2019-04-04T19:23:49.489Z,13.90
2019-04-04T19:26:54.415Z,13.80
2019-04-04T19:30:02.028Z,13.80
2019-04-04T19:33:09.581Z,13.80
2019-04-04T19:36:17.238Z,13.70
2019-04-04T19:39:25.095Z,13.70
2019-04-04T19:42:32.663Z,13.60
2019-04-04T19:45:40.285Z,13.60
2019-04-04T19:48:48.448Z,13.50
2019-04-04T19:51:56.065Z,13.50
2019-04-04T19:55:03.934Z,13.40
2019-04-04T19:58:13.205Z,13.40
2019-04-04T20:01:20.795Z,13.30
2019-04-04T20:04:28.382Z,13.30
2019-04-04T20:07:36.315Z,13.20
2019-04-04T20:10:43.869Z,13.20
2019-04-04T20:13:51.941Z,13.20
2019-04-04T20:17:00.813Z,13.10
2019-04-04T20:20:09.564Z,13.10
2019-04-04T20:23:17.351Z,13.00
2019-04-04T20:26:25.045Z,12.90
2019-04-04T20:29:32.761Z,12.90
2019-04-04T20:32:40.369Z,12.80
2019-04-04T20:35:48.333Z,12.80
2019-04-04T20:38:55.779Z,12.70
2019-04-04T20:42:03.451Z,12.70
2019-04-04T20:45:11.193Z,12.70
2019-04-04T20:48:18.721Z,12.70
2019-04-04T20:51:26.286Z,12.70
2019-04-04T20:54:33.955Z,12.70
2019-04-04T20:57:41.573Z,12.70
2019-04-04T21:00:49.114Z,12.70
2019-04-04T21:03:56.776Z,12.70
2019-04-04T21:07:04.361Z,12.70
2019-04-04T21:10:12.367Z,12.70
2019-04-04T21:13:19.995Z,12.70
2019-04-04T21:16:27.580Z,12.70
2019-04-04T21:19:35.171Z,12.70
2019-04-04T21:22:42.642Z,12.70
2019-04-04T21:25:50.165Z,12.70
2019-04-04T21:28:57.659Z,12.60
2019-04-04T21:32:05.231Z,12.70
2019-04-04T21:35:14.442Z,12.60
2019-04-04T21:38:21.973Z,12.60
2019-04-04T21:41:29.453Z,12.60
2019-04-04T21:44:36.995Z,12.60
2019-04-04T21:47:44.477Z,12.60
2019-04-04T21:50:52.045Z,12.60
2019-04-04T21:53:59.625Z,12.60
2019-04-04T21:57:07.141Z,12.50
2019-04-04T22:00:14.747Z,12.50
2019-04-04T22:03:23.970Z,12.50
2019-04-04T22:06:31.437Z,12.50
2019-04-04T22:09:38.933Z,12.40
2019-04-04T22:12:46.441Z,12.40
2019-04-04T22:15:54.007Z,12.30
2019-04-04T22:19:01.586Z,12.30
2019-04-04T22:22:09.291Z,12.20
2019-04-04T22:25:16.737Z,12.20
2019-04-04T22:28:24.220Z,12.10
2019-04-04T22:31:31.708Z,12.10
2019-04-04T22:34:39.231Z,12.10
2019-04-04T22:37:46.727Z,12.00
2019-04-04T22:40:54.228Z,12.00
2019-04-04T22:44:03.820Z,11.90
2019-04-04T22:47:12.613Z,11.80
2019-04-04T22:50:20.118Z,11.80
2019-04-04T22:53:27.673Z,11.70
2019-04-04T22:56:35.265Z,11.70
2019-04-04T22:59:42.738Z,11.60
2019-04-04T23:02:50.281Z,11.60
2019-04-04T23:05:57.791Z,11.50
2019-04-04T23:09:08.215Z,11.50
2019-04-04T23:12:15.859Z,11.40
2019-04-04T23:15:23.333Z,11.40
2019-04-04T23:18:30.787Z,11.40
2019-04-04T23:21:40.103Z,11.30
2019-04-04T23:24:47.710Z,11.30
2019-04-04T23:27:55.281Z,11.30
2019-04-04T23:31:02.759Z,11.30
2019-04-04T23:34:10.288Z,11.20
2019-04-04T23:37:17.789Z,11.20
2019-04-04T23:40:25.287Z,11.20
2019-04-04T23:43:32.794Z,11.20
2019-04-04T23:46:40.309Z,11.20
2019-04-04T23:49:47.763Z,11.20
2019-04-04T23:52:55.321Z,11.10
2019-04-04T23:56:03.124Z,11.10
2019-04-04T23:59:10.795Z,11.10
